Arcola, Texas
Current Conditions -  °F | °C
As of 10:35 AM on Wednesday 22 Oct 2014 (Local Time) from KAXH Reporting Station
Clear Clear  
Wind Chill: 20°   Ceiling: Unl
Heat Index: 20°   Visibility: 10mi
Dew Point: 13°   Wind: 8mph
Humidity: 64%   Direction: 70°ENE
Pressure: 30.11"   Gusts: NA
Location:  29.4042°N, 95.4477°W
Report Text: KAXH 221535Z AUTO 07007KT 10SM CLR 20/13 A3011 RMK AO2 T01960127
Loading
Personal Weather Stations






























Interactive Weather Map
Tropical Storm Tracking
New forecast layout! Learn more

10-Day Weather Forecast

Advertisements
Track Severe Weather on mobile